createdAt,value
2022-07-29T00:00:58.054Z,16.47
2022-07-29T00:03:24.813Z,16.16
2022-07-29T00:05:54.231Z,16.64
2022-07-29T00:08:21.133Z,16.20
2022-07-29T00:10:47.993Z,16.38
2022-07-29T00:13:14.759Z,16.69
2022-07-29T00:15:41.443Z,16.33
2022-07-29T00:18:08.245Z,16.41
2022-07-29T00:20:34.890Z,16.32
2022-07-29T00:23:01.556Z,15.74
2022-07-29T00:25:28.289Z,15.46
2022-07-29T00:27:54.974Z,16.30
2022-07-29T00:30:21.643Z,15.76
2022-07-29T00:32:48.306Z,16.06
2022-07-29T00:35:33.640Z,16.05
2022-07-29T00:38:00.554Z,16.30
2022-07-29T00:40:28.801Z,15.81
2022-07-29T00:42:55.463Z,16.09
2022-07-29T00:45:23.284Z,16.24
2022-07-29T00:47:50.039Z,15.69
2022-07-29T00:50:16.841Z,15.71
2022-07-29T00:52:43.619Z,16.13
2022-07-29T00:55:20.066Z,15.72
2022-07-29T00:57:46.676Z,15.71
2022-07-29T01:00:19.076Z,15.72
2022-07-29T01:02:48.433Z,15.87
2022-07-29T01:05:15.483Z,14.93
2022-07-29T01:07:42.173Z,15.92
2022-07-29T01:10:10.546Z,15.60
2022-07-29T01:12:38.081Z,15.75
2022-07-29T01:15:05.931Z,15.94
2022-07-29T01:17:57.238Z,16.31
2022-07-29T01:20:42.445Z,16.29
2022-07-29T01:23:30.926Z,16.26
2022-07-29T01:26:20.273Z,16.23
2022-07-29T01:28:57.663Z,16.19
2022-07-29T01:31:29.406Z,16.15
2022-07-29T01:34:00.258Z,16.03
2022-07-29T01:36:36.696Z,15.43
2022-07-29T01:39:18.270Z,15.86
2022-07-29T01:42:13.357Z,15.77
2022-07-29T01:44:49.703Z,15.41
2022-07-29T01:47:18.815Z,14.78
2022-07-29T01:49:48.989Z,15.24
2022-07-29T01:52:21.572Z,14.28
2022-07-29T01:54:52.271Z,15.12
2022-07-29T01:57:19.483Z,15.30
2022-07-29T01:59:46.555Z,14.88
2022-07-29T02:02:13.340Z,14.17
2022-07-29T02:04:40.103Z,14.76
2022-07-29T02:07:07.784Z,14.85
2022-07-29T02:09:39.457Z,14.74
2022-07-29T02:12:06.316Z,14.40
2022-07-29T02:14:37.085Z,14.39
2022-07-29T02:17:03.880Z,14.28
2022-07-29T02:19:30.898Z,14.57
2022-07-29T02:21:57.578Z,14.46
2022-07-29T02:24:24.732Z,13.92
2022-07-29T02:26:52.165Z,14.66
2022-07-29T02:29:20.678Z,14.64
2022-07-29T02:31:48.286Z,14.33
2022-07-29T02:34:15.435Z,14.59
2022-07-29T02:36:46.743Z,14.32
2022-07-29T02:39:16.443Z,13.73
2022-07-29T02:41:49.170Z,14.26
2022-07-29T02:44:18.251Z,14.03
2022-07-29T02:47:03.633Z,14.49
2022-07-29T02:49:37.771Z,14.19
2022-07-29T02:52:41.410Z,13.95
2022-07-29T02:55:30.902Z,13.94
2022-07-29T02:58:06.889Z,13.85
2022-07-29T03:00:35.779Z,14.09
2022-07-29T03:03:04.778Z,13.98
2022-07-29T03:05:31.588Z,14.20
2022-07-29T03:08:02.350Z,13.28
2022-07-29T03:10:29.032Z,13.93
2022-07-29T03:12:56.392Z,13.29
2022-07-29T03:15:23.050Z,14.21
2022-07-29T03:17:52.107Z,13.47
2022-07-29T03:20:18.776Z,14.03
2022-07-29T03:22:47.781Z,14.04
2022-07-29T03:25:15.636Z,13.98
2022-07-29T03:27:42.642Z,12.97
2022-07-29T03:30:09.841Z,12.96
2022-07-29T03:32:36.558Z,13.16
2022-07-29T03:35:03.722Z,13.65
2022-07-29T03:37:31.581Z,13.92
2022-07-29T03:39:59.037Z,12.96
2022-07-29T03:42:32.399Z,14.20
2022-07-29T03:45:03.318Z,14.31
2022-07-29T03:47:36.857Z,14.04
2022-07-29T03:50:16.802Z,13.97
2022-07-29T03:52:43.703Z,14.31
2022-07-29T03:55:12.125Z,14.25
2022-07-29T03:57:38.851Z,14.12
2022-07-29T04:00:06.641Z,14.49
2022-07-29T04:02:33.640Z,14.59
2022-07-29T04:05:00.489Z,14.75
2022-07-29T04:07:27.087Z,14.55
2022-07-29T04:09:53.717Z,15.36
2022-07-29T04:12:22.069Z,14.89
2022-07-29T04:14:48.694Z,15.15
2022-07-29T04:17:15.319Z,15.23
2022-07-29T04:19:41.960Z,15.34
2022-07-29T04:22:08.575Z,15.57
2022-07-29T04:24:35.617Z,15.56
2022-07-29T04:27:02.273Z,15.38
2022-07-29T04:29:29.014Z,15.44
2022-07-29T04:31:55.681Z,15.70
2022-07-29T04:34:22.376Z,16.13
2022-07-29T04:36:49.127Z,15.50
2022-07-29T04:39:20.633Z,15.30
2022-07-29T04:41:50.321Z,15.94
2022-07-29T04:44:17.415Z,15.73
2022-07-29T04:46:45.693Z,16.04
2022-07-29T04:49:12.491Z,15.87
2022-07-29T04:51:39.178Z,16.05
2022-07-29T04:54:05.859Z,15.75
2022-07-29T04:56:32.547Z,15.87
2022-07-29T04:58:59.219Z,15.77
2022-07-29T05:01:28.970Z,15.81
2022-07-29T05:04:00.129Z,16.00
2022-07-29T05:06:27.187Z,15.06
2022-07-29T05:08:54.018Z,16.25
2022-07-29T05:11:22.469Z,16.36
2022-07-29T05:13:51.008Z,16.35
2022-07-29T05:16:17.708Z,16.52
2022-07-29T05:18:44.506Z,16.72
2022-07-29T05:21:11.098Z,16.25
2022-07-29T05:23:37.705Z,16.44
2022-07-29T05:26:04.414Z,16.91
2022-07-29T05:28:34.954Z,17.01
2022-07-29T05:31:01.847Z,15.92
2022-07-29T05:33:35.544Z,18.32
2022-07-29T05:36:08.067Z,19.70
2022-07-29T05:38:35.835Z,21.07
2022-07-29T05:41:02.458Z,22.51
2022-07-29T05:43:29.349Z,23.70
2022-07-29T05:45:56.127Z,24.38
2022-07-29T05:48:22.782Z,27.08
2022-07-29T05:50:49.365Z,27.77
2022-07-29T05:53:19.156Z,29.39
2022-07-29T05:55:47.632Z,30.30
2022-07-29T05:58:14.404Z,30.54
2022-07-29T06:00:41.119Z,30.33
2022-07-29T06:03:07.761Z,30.06
2022-07-29T06:05:35.477Z,30.26
2022-07-29T06:08:02.349Z,30.31
2022-07-29T06:10:29.229Z,30.07
2022-07-29T06:12:55.924Z,28.33
2022-07-29T06:15:22.557Z,28.99
2022-07-29T06:18:00.702Z,28.27
2022-07-29T06:20:32.681Z,27.79
2022-07-29T06:22:59.829Z,26.81
2022-07-29T06:25:27.114Z,26.19
2022-07-29T06:27:53.983Z,26.04
2022-07-29T06:30:20.720Z,26.06
2022-07-29T06:32:48.096Z,26.55
2022-07-29T06:35:39.385Z,27.39
2022-07-29T06:38:01.929Z,28.41
2022-07-29T06:40:47.250Z,28.81
2022-07-29T06:43:14.541Z,29.36
2022-07-29T06:45:42.593Z,31.26
2022-07-29T06:48:10.424Z,31.71
2022-07-29T06:50:37.122Z,32.41
2022-07-29T06:53:04.039Z,31.89
2022-07-29T06:55:30.911Z,32.34
2022-07-29T06:57:57.543Z,31.98
2022-07-29T07:00:24.243Z,32.19
2022-07-29T07:02:50.997Z,32.15
2022-07-29T07:05:17.653Z,32.79
2022-07-29T07:07:44.264Z,32.06
2022-07-29T07:10:10.999Z,32.82
2022-07-29T07:12:37.925Z,32.85
2022-07-29T07:15:05.298Z,33.55
2022-07-29T07:17:32.079Z,34.05
2022-07-29T07:19:58.691Z,34.58
2022-07-29T07:22:25.349Z,34.60
2022-07-29T07:24:52.529Z,34.22
2022-07-29T07:27:19.153Z,33.45
2022-07-29T07:29:45.940Z,32.38
2022-07-29T07:32:14.230Z,32.33
2022-07-29T07:34:40.973Z,32.05
2022-07-29T07:37:07.685Z,31.53
2022-07-29T07:39:34.417Z,30.89
2022-07-29T07:42:01.065Z,30.38
2022-07-29T07:44:27.747Z,30.04
2022-07-29T07:46:54.691Z,29.72
2022-07-29T07:49:21.639Z,29.40
2022-07-29T07:51:50.633Z,28.93
2022-07-29T07:54:20.568Z,28.35
2022-07-29T07:56:50.825Z,28.09
2022-07-29T07:59:20.279Z,27.94
2022-07-29T08:01:48.121Z,27.73
2022-07-29T08:04:27.586Z,26.27
2022-07-29T08:06:57.752Z,27.43
2022-07-29T08:09:29.846Z,27.36
2022-07-29T08:11:57.714Z,26.71
2022-07-29T08:14:24.355Z,26.88
2022-07-29T08:16:51.934Z,27.10
2022-07-29T08:19:18.665Z,27.00
2022-07-29T08:21:45.426Z,27.11
2022-07-29T08:24:30.641Z,26.54
2022-07-29T08:26:57.332Z,27.00
2022-07-29T08:29:23.965Z,26.39
2022-07-29T08:31:51.022Z,27.28
2022-07-29T08:34:17.876Z,27.01
2022-07-29T08:36:44.492Z,27.13
2022-07-29T08:39:16.854Z,27.33
2022-07-29T08:41:56.880Z,27.14
2022-07-29T08:44:29.598Z,27.10
2022-07-29T08:46:57.888Z,28.06
2022-07-29T08:49:24.590Z,27.81
2022-07-29T08:51:51.255Z,27.99
2022-07-29T08:54:18.604Z,28.26
2022-07-29T08:59:31.397Z,27.68
2022-07-29T09:01:58.927Z,27.34
2022-07-29T09:04:25.988Z,27.84
2022-07-29T09:06:53.047Z,28.47
2022-07-29T09:09:19.809Z,28.13
2022-07-29T09:11:46.460Z,28.15
2022-07-29T09:14:14.440Z,28.60
2022-07-29T09:16:53.072Z,28.73
2022-07-29T09:19:30.525Z,28.75
2022-07-29T09:22:04.246Z,28.64
2022-07-29T09:24:44.785Z,28.45
2022-07-29T09:27:12.270Z,28.20
2022-07-29T09:29:39.407Z,29.13
2022-07-29T09:32:08.158Z,28.82
2022-07-29T09:34:34.941Z,29.02
2022-07-29T09:37:01.617Z,29.28
2022-07-29T09:39:39.084Z,29.46
2022-07-29T09:42:06.831Z,29.54
2022-07-29T09:44:44.170Z,28.86
2022-07-29T09:47:10.865Z,29.19
2022-07-29T09:49:59.348Z,29.66
2022-07-29T09:52:26.968Z,29.59
2022-07-29T09:54:55.108Z,29.11
2022-07-29T09:57:31.092Z,28.74
2022-07-29T10:00:07.782Z,28.81
2022-07-29T10:02:47.129Z,28.95
2022-07-29T10:05:36.064Z,28.82
2022-07-29T10:08:03.790Z,28.36
2022-07-29T10:10:37.698Z,28.24
2022-07-29T10:13:09.810Z,28.33
2022-07-29T10:15:41.831Z,28.48
2022-07-29T10:18:09.171Z,28.37
2022-07-29T10:20:35.952Z,27.84
2022-07-29T10:23:02.618Z,28.51
2022-07-29T10:25:29.299Z,28.27
2022-07-29T10:28:01.997Z,29.28
2022-07-29T10:30:28.745Z,29.42
2022-07-29T10:33:08.080Z,29.37
2022-07-29T10:35:47.415Z,28.53
2022-07-29T10:38:26.243Z,29.82
2022-07-29T10:41:28.989Z,29.98
2022-07-29T10:44:11.365Z,29.94
2022-07-29T10:46:44.039Z,29.58
2022-07-29T10:49:18.169Z,29.81
2022-07-29T10:51:54.375Z,29.69
2022-07-29T10:54:48.731Z,29.27
2022-07-29T10:57:25.899Z,29.38
2022-07-29T11:00:09.992Z,29.32
2022-07-29T11:02:46.666Z,29.37
2022-07-29T11:05:14.903Z,29.15
2022-07-29T11:08:28.171Z,29.64
2022-07-29T11:11:20.416Z,29.76
2022-07-29T11:13:54.186Z,29.25
2022-07-29T11:16:25.271Z,29.54
2022-07-29T11:19:14.543Z,29.85
2022-07-29T11:28:22.868Z,29.19
2022-07-29T11:30:52.741Z,28.76
2022-07-29T11:33:54.413Z,28.57
2022-07-29T11:36:19.750Z,28.24
2022-07-29T11:42:35.560Z,28.28
2022-07-29T11:45:44.412Z,27.88
2022-07-29T11:48:03.640Z,26.76
2022-07-29T11:50:45.876Z,27.29
2022-07-29T11:53:14.992Z,27.01
2022-07-29T11:55:51.541Z,27.39
2022-07-29T11:58:25.005Z,25.65
2022-07-29T12:00:56.332Z,26.41
2022-07-29T12:03:34.202Z,25.98
2022-07-29T12:06:21.075Z,26.16
2022-07-29T12:07:02.754Z,29.39
2022-07-29T12:08:48.068Z,25.58
2022-07-29T12:11:23.463Z,26.15
2022-07-29T12:13:53.718Z,26.20
2022-07-29T12:16:26.103Z,26.45
2022-07-29T12:19:03.750Z,26.52
2022-07-29T12:21:31.301Z,26.56
2022-07-29T12:24:04.842Z,25.79
2022-07-29T12:26:35.915Z,26.14
2022-07-29T12:29:03.338Z,24.98
2022-07-29T12:31:42.861Z,25.65
2022-07-29T12:34:15.260Z,26.32
2022-07-29T12:36:42.693Z,25.48
2022-07-29T12:39:10.256Z,25.92
2022-07-29T12:41:37.111Z,25.68
2022-07-29T12:44:04.225Z,26.49
2022-07-29T12:46:30.926Z,25.41
2022-07-29T12:48:58.325Z,26.38
2022-07-29T12:51:34.067Z,26.74
2022-07-29T12:54:24.558Z,26.79
2022-07-29T12:56:59.650Z,26.50
2022-07-29T12:59:26.313Z,26.63
2022-07-29T13:01:53.190Z,26.09
2022-07-29T13:04:33.225Z,26.57
2022-07-29T13:07:10.528Z,26.13
2022-07-29T13:09:46.846Z,26.79
2022-07-29T13:12:14.058Z,26.81
2022-07-29T13:14:45.563Z,26.79
2022-07-29T13:17:24.698Z,26.60
2022-07-29T13:20:05.092Z,27.17
2022-07-29T13:22:35.740Z,27.13
2022-07-29T13:25:05.316Z,27.10
2022-07-29T13:27:33.319Z,26.74
2022-07-29T13:30:01.016Z,27.05
2022-07-29T13:32:29.077Z,27.52
2022-07-29T13:35:01.575Z,27.05
2022-07-29T13:37:34.064Z,26.81
2022-07-29T13:40:00.956Z,27.44
2022-07-29T13:42:27.877Z,27.44
2022-07-29T13:44:54.809Z,27.49
2022-07-29T13:47:21.819Z,26.93
2022-07-29T13:49:48.990Z,27.26
2022-07-29T13:52:16.554Z,26.90
2022-07-29T13:54:43.908Z,27.10
2022-07-29T13:57:13.895Z,26.86
2022-07-29T13:59:43.983Z,26.90
2022-07-29T14:02:11.112Z,26.68
2022-07-29T14:04:39.479Z,26.62
2022-07-29T14:07:06.746Z,26.65
2022-07-29T14:09:41.009Z,26.36
2022-07-29T14:12:09.064Z,26.84
2022-07-29T14:14:37.453Z,26.81
2022-07-29T14:17:04.543Z,25.85
2022-07-29T14:19:33.333Z,26.21
2022-07-29T14:22:00.322Z,26.71
2022-07-29T14:24:27.480Z,26.60
2022-07-29T14:26:54.252Z,26.66
2022-07-29T14:29:21.031Z,25.80
2022-07-29T14:31:47.785Z,26.86
2022-07-29T14:34:16.536Z,26.53
2022-07-29T14:36:43.282Z,26.64
2022-07-29T14:39:09.903Z,26.79
2022-07-29T14:41:36.615Z,25.23
2022-07-29T14:44:03.464Z,26.34
2022-07-29T14:46:30.131Z,26.49
2022-07-29T14:48:56.901Z,26.23
2022-07-29T14:51:23.563Z,26.16
2022-07-29T14:53:58.971Z,26.14
2022-07-29T14:56:46.821Z,25.83
2022-07-29T14:59:12.279Z,25.75
2022-07-29T15:01:38.988Z,26.21
2022-07-29T15:04:05.712Z,25.54
2022-07-29T15:06:32.410Z,25.21
2022-07-29T15:08:59.045Z,24.44
2022-07-29T15:11:39.101Z,25.94
2022-07-29T15:14:06.854Z,25.28
2022-07-29T15:16:33.866Z,25.69
2022-07-29T15:19:01.155Z,25.76
2022-07-29T15:21:28.400Z,25.23
2022-07-29T15:23:55.009Z,25.40
2022-07-29T15:26:21.679Z,24.90
2022-07-29T15:28:48.905Z,25.28
2022-07-29T15:31:15.645Z,25.35
2022-07-29T15:33:42.312Z,25.36
2022-07-29T15:36:09.007Z,25.63
2022-07-29T15:38:35.799Z,25.26
2022-07-29T15:41:08.678Z,25.45
2022-07-29T15:43:36.251Z,25.03
2022-07-29T15:46:21.503Z,25.29
2022-07-29T15:48:48.389Z,24.51
2022-07-29T15:51:15.259Z,25.60
2022-07-29T15:53:41.976Z,25.13
2022-07-29T15:56:08.582Z,24.71
2022-07-29T15:58:35.193Z,25.43
2022-07-29T16:01:01.969Z,25.31
2022-07-29T16:03:29.619Z,24.98
2022-07-29T16:05:56.361Z,25.05
2022-07-29T16:08:23.155Z,25.41
2022-07-29T16:10:49.770Z,24.77
2022-07-29T16:13:16.998Z,24.94
2022-07-29T16:15:45.452Z,24.78
2022-07-29T16:18:30.149Z,25.14
2022-07-29T16:20:57.112Z,24.61
2022-07-29T16:23:24.761Z,25.25
2022-07-29T16:25:59.714Z,24.48
2022-07-29T16:28:27.897Z,24.32
2022-07-29T16:30:54.550Z,24.58
2022-07-29T16:33:21.342Z,24.20
2022-07-29T16:35:48.005Z,25.08
2022-07-29T16:38:14.706Z,24.72
2022-07-29T16:40:41.488Z,24.60
2022-07-29T16:43:08.318Z,23.64
2022-07-29T16:45:45.297Z,23.70
2022-07-29T16:48:17.918Z,24.53
2022-07-29T16:50:45.071Z,24.49
2022-07-29T16:53:11.682Z,24.53
2022-07-29T16:55:38.644Z,23.15
2022-07-29T16:58:09.271Z,24.51
2022-07-29T17:00:36.065Z,24.29
2022-07-29T17:03:02.731Z,24.60
2022-07-29T17:05:29.335Z,24.69
2022-07-29T17:07:57.522Z,24.60
2022-07-29T17:10:26.617Z,23.27
2022-07-29T17:12:54.637Z,24.65
2022-07-29T17:15:21.267Z,24.34
2022-07-29T17:17:55.174Z,24.02
2022-07-29T17:20:23.472Z,24.28
2022-07-29T17:22:50.397Z,24.47
2022-07-29T17:25:20.830Z,22.84
2022-07-29T17:27:49.686Z,24.48
2022-07-29T17:30:16.534Z,24.37
2022-07-29T17:32:43.153Z,24.02
2022-07-29T17:35:28.268Z,22.60
2022-07-29T17:37:54.891Z,24.18
2022-07-29T17:40:21.730Z,23.59
2022-07-29T17:42:48.413Z,24.28
2022-07-29T17:45:15.017Z,23.56
2022-07-29T17:47:41.912Z,23.80
2022-07-29T17:50:08.851Z,23.59
2022-07-29T17:52:35.522Z,23.67
2022-07-29T17:55:02.688Z,23.74
2022-07-29T17:57:33.400Z,22.42
2022-07-29T18:00:00.111Z,23.48
2022-07-29T18:02:27.128Z,23.00
2022-07-29T18:04:55.309Z,23.22
2022-07-29T18:07:22.054Z,22.32
2022-07-29T18:09:48.840Z,22.95
2022-07-29T18:12:15.580Z,23.44
2022-07-29T18:14:42.386Z,22.97
2022-07-29T18:17:09.022Z,23.16
2022-07-29T18:19:35.725Z,22.84
2022-07-29T18:22:05.167Z,22.12
2022-07-29T18:24:32.291Z,22.76
2022-07-29T18:26:59.149Z,21.66
2022-07-29T18:29:28.958Z,22.48
2022-07-29T18:31:55.880Z,22.97
2022-07-29T18:34:22.556Z,21.47
2022-07-29T18:36:49.204Z,22.60
2022-07-29T18:39:20.893Z,20.98
2022-07-29T18:41:50.615Z,22.26
2022-07-29T18:44:21.879Z,22.16
2022-07-29T18:46:49.586Z,21.73
2022-07-29T18:49:16.336Z,21.80
2022-07-29T18:51:43.001Z,21.11
2022-07-29T18:54:10.564Z,21.29
2022-07-29T18:56:37.345Z,20.60
2022-07-29T18:59:04.387Z,18.54
2022-07-29T19:01:31.681Z,20.98
2022-07-29T19:03:59.208Z,20.94
2022-07-29T19:06:35.084Z,19.26
2022-07-29T19:09:01.882Z,18.50
2022-07-29T19:11:28.554Z,20.78
2022-07-29T19:13:55.257Z,21.15
2022-07-29T19:16:22.064Z,21.06
2022-07-29T19:18:48.908Z,20.70
2022-07-29T19:21:15.634Z,20.82
2022-07-29T19:24:04.256Z,20.28
2022-07-29T19:26:30.928Z,20.60
2022-07-29T19:28:57.590Z,20.81
2022-07-29T19:31:25.811Z,20.21
2022-07-29T19:33:52.524Z,20.04
2022-07-29T19:36:19.179Z,20.97
2022-07-29T19:38:45.801Z,20.34
2022-07-29T19:41:13.223Z,20.71
2022-07-29T19:43:49.923Z,20.72
2022-07-29T19:46:22.997Z,19.82
2022-07-29T19:48:50.033Z,20.21
2022-07-29T19:51:17.088Z,20.74
2022-07-29T19:53:43.832Z,20.68
2022-07-29T19:56:10.490Z,20.72
2022-07-29T19:58:37.182Z,20.97
2022-07-29T20:01:10.240Z,20.90
2022-07-29T20:03:39.938Z,20.50
2022-07-29T20:06:07.545Z,19.88
2022-07-29T20:08:34.248Z,20.37
2022-07-29T20:11:00.902Z,19.36
2022-07-29T20:13:27.587Z,20.70
2022-07-29T20:15:54.342Z,20.11
2022-07-29T20:18:21.100Z,20.44
2022-07-29T20:20:49.620Z,20.03
2022-07-29T20:23:17.193Z,20.44
2022-07-29T20:25:44.443Z,20.52
2022-07-29T20:28:11.075Z,20.37
2022-07-29T20:30:38.581Z,20.59
2022-07-29T20:33:05.456Z,20.44
2022-07-29T20:35:32.071Z,20.28
2022-07-29T20:37:59.850Z,19.72
2022-07-29T20:40:27.332Z,20.03
2022-07-29T20:42:54.639Z,19.06
2022-07-29T20:45:21.853Z,19.29
2022-07-29T20:47:48.545Z,19.67
2022-07-29T20:50:15.497Z,19.95
2022-07-29T20:52:44.078Z,20.07
2022-07-29T20:55:10.810Z,20.29
2022-07-29T20:57:39.195Z,20.28
2022-07-29T21:00:07.211Z,20.14
2022-07-29T21:02:34.025Z,20.29
2022-07-29T21:05:00.977Z,19.72
2022-07-29T21:07:27.696Z,19.92
2022-07-29T21:10:02.722Z,20.05
2022-07-29T21:12:30.177Z,19.67
2022-07-29T21:14:57.837Z,20.00
2022-07-29T21:17:24.614Z,19.94
2022-07-29T21:19:53.342Z,19.64
2022-07-29T21:22:23.203Z,19.83
2022-07-29T21:24:50.026Z,20.13
2022-07-29T21:27:35.423Z,19.64
2022-07-29T21:30:06.446Z,19.75
2022-07-29T21:32:33.141Z,19.76
2022-07-29T21:34:59.994Z,19.92
2022-07-29T21:37:27.116Z,20.14
2022-07-29T21:39:53.740Z,19.50
2022-07-29T21:42:20.430Z,19.52
2022-07-29T21:44:47.120Z,19.96
2022-07-29T21:47:13.751Z,20.03
2022-07-29T21:49:40.365Z,19.21
2022-07-29T21:52:08.108Z,19.53
2022-07-29T21:54:35.767Z,19.98
2022-07-29T21:57:02.997Z,19.73
2022-07-29T21:59:30.027Z,20.02
2022-07-29T22:02:00.772Z,19.88
2022-07-29T22:04:28.677Z,19.86
2022-07-29T22:06:55.774Z,19.64
2022-07-29T22:09:22.391Z,19.65
2022-07-29T22:11:49.086Z,19.68
2022-07-29T22:14:17.751Z,19.78
2022-07-29T22:16:45.679Z,19.69
2022-07-29T22:19:12.849Z,19.72
2022-07-29T22:21:39.984Z,19.65
2022-07-29T22:24:07.132Z,19.82
2022-07-29T22:26:36.215Z,19.84
2022-07-29T22:29:02.834Z,19.26
2022-07-29T22:31:29.478Z,19.06
2022-07-29T22:33:56.111Z,19.12
2022-07-29T22:36:22.866Z,19.68
2022-07-29T22:38:52.005Z,19.53
2022-07-29T22:41:18.857Z,19.08
2022-07-29T22:43:45.501Z,18.27
2022-07-29T22:46:12.233Z,17.53
2022-07-29T22:48:39.018Z,19.57
2022-07-29T22:51:05.809Z,18.00
2022-07-29T22:53:32.530Z,18.90
2022-07-29T22:55:59.190Z,19.29
2022-07-29T22:58:25.871Z,18.11
2022-07-29T23:00:52.672Z,18.12
2022-07-29T23:03:19.514Z,19.16
2022-07-29T23:05:46.216Z,18.61
2022-07-29T23:08:12.958Z,19.49
2022-07-29T23:10:39.607Z,19.12
2022-07-29T23:13:06.362Z,19.02
2022-07-29T23:15:32.992Z,19.15
2022-07-29T23:17:59.633Z,18.54
2022-07-29T23:20:26.480Z,18.70
2022-07-29T23:22:53.099Z,18.58
2022-07-29T23:25:19.784Z,17.37
2022-07-29T23:27:46.442Z,18.89
2022-07-29T23:30:13.198Z,18.90
2022-07-29T23:32:39.870Z,18.51
2022-07-29T23:35:07.426Z,18.78
2022-07-29T23:37:34.522Z,18.25
2022-07-29T23:40:01.159Z,17.20
2022-07-29T23:42:27.972Z,18.30
2022-07-29T23:44:54.620Z,18.34
2022-07-29T23:47:21.318Z,17.42
2022-07-29T23:49:50.048Z,18.52
2022-07-29T23:52:17.422Z,17.61
2022-07-29T23:54:44.072Z,17.62
2022-07-29T23:57:10.851Z,16.91
2022-07-29T23:59:37.546Z,17.58
